Malacca, Malacca International Airport (WMKM)

NameMalacca International Airport
CityMalacca
CountryMalaysia
ICAOWMKM
IATAMKZ
Altitude12 m
CoordinatesGoogle Map
Live Air TrafficLiveATC.net
METARWMKM 251700Z VRB03KT 9999 FEW026 26/24 Q1011
2020-04-25 17:00:00 Wind: North (0°) 1.54 m/s - Visibility: > 10000 m - Temperature: 26 °C - Dew point: 24 °C - Humidity: 88.8% - Pressure: 1011 hPa

Sorry, no flights used the airport in this database.